sensor_id;sensor_type;location;lat;lon;timestamp;P1;durP1;ratioP1;P2;durP2;ratioP2
18689;SDS011;9782;52.930;15.562;2023-02-28T06:15:29;18.27;;;8.20;;
18689;SDS011;9782;52.930;15.562;2023-02-28T06:17:56;16.90;;;7.93;;
18689;SDS011;9782;52.930;15.562;2023-02-28T06:20:23;13.73;;;7.90;;
18689;SDS011;9782;52.930;15.562;2023-02-28T06:22:51;18.43;;;7.43;;
18689;SDS011;9782;52.930;15.562;2023-02-28T06:25:19;17.80;;;7.43;;
18689;SDS011;9782;52.930;15.562;2023-02-28T06:27:46;16.67;;;8.13;;
18689;SDS011;9782;52.930;15.562;2023-02-28T06:30:14;14.13;;;7.43;;
18689;SDS011;9782;52.930;15.562;2023-02-28T06:32:42;16.63;;;7.57;;
18689;SDS011;9782;52.930;15.562;2023-02-28T06:35:09;19.17;;;8.60;;
18689;SDS011;9782;52.930;15.562;2023-02-28T06:37:36;13.90;;;7.90;;
18689;SDS011;9782;52.930;15.562;2023-02-28T06:40:03;15.63;;;9.47;;
18689;SDS011;9782;52.930;15.562;2023-02-28T06:42:32;18.93;;;9.43;;
18689;SDS011;9782;52.930;15.562;2023-02-28T06:44:58;21.23;;;11.10;;
18689;SDS011;9782;52.930;15.562;2023-02-28T06:47:28;23.70;;;11.03;;
18689;SDS011;9782;52.930;15.562;2023-02-28T06:49:58;23.50;;;10.83;;
18689;SDS011;9782;52.930;15.562;2023-02-28T06:52:26;22.90;;;10.23;;
18689;SDS011;9782;52.930;15.562;2023-02-28T06:54:53;20.60;;;9.40;;
18689;SDS011;9782;52.930;15.562;2023-02-28T06:57:24;21.23;;;10.47;;
18689;SDS011;9782;52.930;15.562;2023-02-28T06:59:51;21.43;;;10.17;;
18689;SDS011;9782;52.930;15.562;2023-02-28T07:02:18;23.90;;;11.10;;
18689;SDS011;9782;52.930;15.562;2023-02-28T07:04:45;20.97;;;10.03;;
18689;SDS011;9782;52.930;15.562;2023-02-28T07:07:13;17.63;;;9.23;;
18689;SDS011;9782;52.930;15.562;2023-02-28T07:09:40;18.03;;;9.33;;
18689;SDS011;9782;52.930;15.562;2023-02-28T07:12:06;18.47;;;9.80;;
18689;SDS011;9782;52.930;15.562;2023-02-28T07:14:33;16.93;;;9.70;;
18689;SDS011;9782;52.930;15.562;2023-02-28T07:17:02;19.53;;;9.90;;
18689;SDS011;9782;52.930;15.562;2023-02-28T07:19:29;21.87;;;11.47;;
18689;SDS011;9782;52.930;15.562;2023-02-28T07:21:55;24.27;;;11.90;;
18689;SDS011;9782;52.930;15.562;2023-02-28T07:24:24;30.00;;;14.10;;
18689;SDS011;9782;52.930;15.562;2023-02-28T07:26:53;35.07;;;15.10;;
18689;SDS011;9782;52.930;15.562;2023-02-28T07:29:20;34.80;;;17.03;;
18689;SDS011;9782;52.930;15.562;2023-02-28T07:31:46;27.77;;;13.97;;
18689;SDS011;9782;52.930;15.562;2023-02-28T07:34:15;31.67;;;15.70;;
18689;SDS011;9782;52.930;15.562;2023-02-28T07:36:42;37.80;;;18.60;;
18689;SDS011;9782;52.930;15.562;2023-02-28T07:39:09;36.07;;;17.80;;
18689;SDS011;9782;52.930;15.562;2023-02-28T07:41:37;39.40;;;17.83;;
18689;SDS011;9782;52.930;15.562;2023-02-28T07:44:08;36.20;;;18.03;;
18689;SDS011;9782;52.930;15.562;2023-02-28T07:46:35;38.20;;;18.43;;
18689;SDS011;9782;52.930;15.562;2023-02-28T07:49:02;34.60;;;17.80;;
18689;SDS011;9782;52.930;15.562;2023-02-28T07:51:29;37.27;;;18.60;;
18689;SDS011;9782;52.930;15.562;2023-02-28T07:53:56;33.83;;;17.00;;
18689;SDS011;9782;52.930;15.562;2023-02-28T07:56:23;53.90;;;28.33;;
18689;SDS011;9782;52.930;15.562;2023-02-28T07:58:51;57.47;;;29.83;;
18689;SDS011;9782;52.930;15.562;2023-02-28T08:01:18;64.47;;;34.10;;
18689;SDS011;9782;52.930;15.562;2023-02-28T08:03:45;60.47;;;31.67;;
18689;SDS011;9782;52.930;15.562;2023-02-28T08:06:15;49.07;;;25.77;;
18689;SDS011;9782;52.930;15.562;2023-02-28T08:08:43;53.20;;;27.43;;
18689;SDS011;9782;52.930;15.562;2023-02-28T08:11:10;30.50;;;16.67;;
18689;SDS011;9782;52.930;15.562;2023-02-28T08:13:37;24.40;;;11.27;;
18689;SDS011;9782;52.930;15.562;2023-02-28T08:16:05;20.90;;;11.60;;
18689;SDS011;9782;52.930;15.562;2023-02-28T08:18:32;17.53;;;9.90;;
18689;SDS011;9782;52.930;15.562;2023-02-28T08:20:59;17.83;;;9.60;;
18689;SDS011;9782;52.930;15.562;2023-02-28T08:23:31;20.77;;;10.17;;
18689;SDS011;9782;52.930;15.562;2023-02-28T08:25:58;22.97;;;12.87;;
18689;SDS011;9782;52.930;15.562;2023-02-28T08:28:25;16.60;;;8.63;;
18689;SDS011;9782;52.930;15.562;2023-02-28T08:30:52;17.23;;;9.03;;
18689;SDS011;9782;52.930;15.562;2023-02-28T08:33:20;18.40;;;8.00;;
18689;SDS011;9782;52.930;15.562;2023-02-28T08:35:47;17.57;;;9.17;;
18689;SDS011;9782;52.930;15.562;2023-02-28T08:38:14;17.33;;;9.63;;
18689;SDS011;9782;52.930;15.562;2023-02-28T08:40:41;13.23;;;7.07;;
18689;SDS011;9782;52.930;15.562;2023-02-28T08:43:08;14.77;;;7.03;;
18689;SDS011;9782;52.930;15.562;2023-02-28T08:45:34;14.00;;;6.87;;
18689;SDS011;9782;52.930;15.562;2023-02-28T08:48:01;21.30;;;7.70;;
18689;SDS011;9782;52.930;15.562;2023-02-28T08:50:29;21.47;;;11.77;;
18689;SDS011;9782;52.930;15.562;2023-02-28T08:52:56;18.80;;;10.77;;
18689;SDS011;9782;52.930;15.562;2023-02-28T08:55:23;34.20;;;20.10;;
18689;SDS011;9782;52.930;15.562;2023-02-28T08:57:50;36.07;;;19.53;;
18689;SDS011;9782;52.930;15.562;2023-02-28T09:00:17;14.80;;;7.33;;
18689;SDS011;9782;52.930;15.562;2023-02-28T09:02:45;29.27;;;11.07;;
18689;SDS011;9782;52.930;15.562;2023-02-28T09:05:11;18.43;;;8.57;;
18689;SDS011;9782;52.930;15.562;2023-02-28T09:07:39;18.03;;;10.33;;
18689;SDS011;9782;52.930;15.562;2023-02-28T09:10:07;23.27;;;10.17;;
18689;SDS011;9782;52.930;15.562;2023-02-28T09:12:34;16.60;;;8.53;;
18689;SDS011;9782;52.930;15.562;2023-02-28T09:15:01;12.47;;;7.63;;
18689;SDS011;9782;52.930;15.562;2023-02-28T09:17:28;14.00;;;8.03;;
18689;SDS011;9782;52.930;15.562;2023-02-28T09:19:55;15.83;;;9.10;;
18689;SDS011;9782;52.930;15.562;2023-02-28T09:22:22;10.37;;;6.13;;
18689;SDS011;9782;52.930;15.562;2023-02-28T09:24:50;10.57;;;6.93;;
18689;SDS011;9782;52.930;15.562;2023-02-28T09:27:17;13.70;;;7.63;;
18689;SDS011;9782;52.930;15.562;2023-02-28T09:29:43;25.10;;;7.90;;
18689;SDS011;9782;52.930;15.562;2023-02-28T09:32:10;14.87;;;7.47;;
18689;SDS011;9782;52.930;15.562;2023-02-28T09:34:37;14.70;;;8.10;;
18689;SDS011;9782;52.930;15.562;2023-02-28T09:37:04;14.57;;;7.43;;
18689;SDS011;9782;52.930;15.562;2023-02-28T09:39:31;17.07;;;8.23;;
18689;SDS011;9782;52.930;15.562;2023-02-28T09:41:59;18.37;;;8.03;;
18689;SDS011;9782;52.930;15.562;2023-02-28T09:44:28;14.20;;;7.27;;
18689;SDS011;9782;52.930;15.562;2023-02-28T09:46:58;15.17;;;7.50;;
18689;SDS011;9782;52.930;15.562;2023-02-28T09:49:31;23.17;;;7.77;;
18689;SDS011;9782;52.930;15.562;2023-02-28T09:52:03;12.70;;;7.30;;
18689;SDS011;9782;52.930;15.562;2023-02-28T09:54:34;15.40;;;7.17;;
18689;SDS011;9782;52.930;15.562;2023-02-28T09:57:04;12.07;;;6.43;;
18689;SDS011;9782;52.930;15.562;2023-02-28T09:59:39;17.93;;;10.13;;
18689;SDS011;9782;52.930;15.562;2023-02-28T10:02:19;14.90;;;7.57;;
18689;SDS011;9782;52.930;15.562;2023-02-28T10:05:08;15.13;;;8.10;;
18689;SDS011;9782;52.930;15.562;2023-02-28T10:07:47;9.80;;;5.70;;
18689;SDS011;9782;52.930;15.562;2023-02-28T10:10:28;15.67;;;9.97;;
18689;SDS011;9782;52.930;15.562;2023-02-28T10:13:02;14.70;;;5.43;;
18689;SDS011;9782;52.930;15.562;2023-02-28T10:15:32;10.13;;;5.60;;
18689;SDS011;9782;52.930;15.562;2023-02-28T10:18:02;4.23;;;2.40;;
18689;SDS011;9782;52.930;15.562;2023-02-28T10:20:31;3.63;;;2.00;;
18689;SDS011;9782;52.930;15.562;2023-02-28T10:23:03;5.07;;;2.87;;
18689;SDS011;9782;52.930;15.562;2023-02-28T10:25:36;7.30;;;2.77;;
18689;SDS011;9782;52.930;15.562;2023-02-28T10:28:12;5.37;;;3.27;;
18689;SDS011;9782;52.930;15.562;2023-02-28T10:30:41;5.67;;;3.60;;
18689;SDS011;9782;52.930;15.562;2023-02-28T10:33:21;12.30;;;6.40;;
18689;SDS011;9782;52.930;15.562;2023-02-28T10:35:50;14.23;;;6.57;;
18689;SDS011;9782;52.930;15.562;2023-02-28T10:38:18;18.57;;;10.10;;
18689;SDS011;9782;52.930;15.562;2023-02-28T10:40:46;19.23;;;11.27;;
18689;SDS011;9782;52.930;15.562;2023-02-28T10:43:19;10.53;;;6.47;;
18689;SDS011;9782;52.930;15.562;2023-02-28T10:45:56;7.10;;;4.33;;
18689;SDS011;9782;52.930;15.562;2023-02-28T10:48:27;9.27;;;5.60;;
18689;SDS011;9782;52.930;15.562;2023-02-28T10:50:57;5.33;;;3.70;;
18689;SDS011;9782;52.930;15.562;2023-02-28T10:53:30;23.70;;;15.87;;
18689;SDS011;9782;52.930;15.562;2023-02-28T10:55:59;8.53;;;4.90;;
18689;SDS011;9782;52.930;15.562;2023-02-28T10:58:30;9.57;;;5.60;;
18689;SDS011;9782;52.930;15.562;2023-02-28T11:00:59;23.30;;;10.43;;
18689;SDS011;9782;52.930;15.562;2023-02-28T11:03:29;33.73;;;16.23;;
18689;SDS011;9782;52.930;15.562;2023-02-28T11:05:58;31.03;;;14.07;;
18689;SDS011;9782;52.930;15.562;2023-02-28T11:08:30;16.00;;;8.60;;
18689;SDS011;9782;52.930;15.562;2023-02-28T11:10:58;15.37;;;7.07;;
18689;SDS011;9782;52.930;15.562;2023-02-28T11:13:32;7.20;;;4.10;;
18689;SDS011;9782;52.930;15.562;2023-02-28T11:16:02;6.97;;;3.97;;
18689;SDS011;9782;52.930;15.562;2023-02-28T11:18:32;12.03;;;5.90;;
18689;SDS011;9782;52.930;15.562;2023-02-28T11:21:05;77.83;;;32.00;;
18689;SDS011;9782;52.930;15.562;2023-02-28T11:23:33;117.93;;;40.10;;
18689;SDS011;9782;52.930;15.562;2023-02-28T11:26:03;40.10;;;14.07;;
18689;SDS011;9782;52.930;15.562;2023-02-28T11:28:36;69.27;;;27.03;;
18689;SDS011;9782;52.930;15.562;2023-02-28T11:31:06;37.93;;;14.17;;
18689;SDS011;9782;52.930;15.562;2023-02-28T11:33:46;11.37;;;5.03;;
18689;SDS011;9782;52.930;15.562;2023-02-28T11:36:17;149.57;;;45.40;;
18689;SDS011;9782;52.930;15.562;2023-02-28T11:38:46;129.70;;;42.40;;
18689;SDS011;9782;52.930;15.562;2023-02-28T11:41:18;73.23;;;26.77;;
18689;SDS011;9782;52.930;15.562;2023-02-28T11:44:00;15.13;;;6.20;;
18689;SDS011;9782;52.930;15.562;2023-02-28T11:46:35;44.90;;;21.00;;
18689;SDS011;9782;52.930;15.562;2023-02-28T11:49:10;18.47;;;8.83;;
18689;SDS011;9782;52.930;15.562;2023-02-28T11:51:49;18.30;;;10.17;;
18689;SDS011;9782;52.930;15.562;2023-02-28T11:54:32;36.10;;;16.43;;
18689;SDS011;9782;52.930;15.562;2023-02-28T11:57:21;19.80;;;8.73;;
18689;SDS011;9782;52.930;15.562;2023-02-28T12:00:01;14.53;;;5.80;;
18689;SDS011;9782;52.930;15.562;2023-02-28T12:02:35;7.90;;;4.50;;
18689;SDS011;9782;52.930;15.562;2023-02-28T12:05:17;10.80;;;5.17;;
18689;SDS011;9782;52.930;15.562;2023-02-28T12:07:54;8.53;;;3.53;;
18689;SDS011;9782;52.930;15.562;2023-02-28T12:10:30;10.33;;;5.80;;
18689;SDS011;9782;52.930;15.562;2023-02-28T12:13:07;6.30;;;4.10;;
18689;SDS011;9782;52.930;15.562;2023-02-28T12:15:57;8.70;;;4.13;;
18689;SDS011;9782;52.930;15.562;2023-02-28T12:18:48;6.87;;;4.37;;
18689;SDS011;9782;52.930;15.562;2023-02-28T12:21:33;10.23;;;5.53;;
18689;SDS011;9782;52.930;15.562;2023-02-28T12:24:24;10.20;;;5.03;;
18689;SDS011;9782;52.930;15.562;2023-02-28T12:27:24;10.57;;;6.10;;
18689;SDS011;9782;52.930;15.562;2023-02-28T12:29:54;7.10;;;4.17;;
18689;SDS011;9782;52.930;15.562;2023-02-28T12:32:27;12.63;;;5.20;;
18689;SDS011;9782;52.930;15.562;2023-02-28T12:35:00;13.33;;;9.17;;
18689;SDS011;9782;52.930;15.562;2023-02-28T12:37:31;9.17;;;5.30;;
18689;SDS011;9782;52.930;15.562;2023-02-28T12:40:08;8.40;;;4.47;;
18689;SDS011;9782;52.930;15.562;2023-02-28T12:42:39;10.03;;;5.70;;
18689;SDS011;9782;52.930;15.562;2023-02-28T12:45:10;6.70;;;3.80;;
18689;SDS011;9782;52.930;15.562;2023-02-28T12:47:42;10.13;;;6.27;;
18689;SDS011;9782;52.930;15.562;2023-02-28T12:50:12;5.03;;;3.43;;
18689;SDS011;9782;52.930;15.562;2023-02-28T12:52:41;5.73;;;3.87;;
18689;SDS011;9782;52.930;15.562;2023-02-28T12:55:16;8.37;;;4.50;;
18689;SDS011;9782;52.930;15.562;2023-02-28T12:57:50;5.70;;;3.97;;
18689;SDS011;9782;52.930;15.562;2023-02-28T13:00:22;5.40;;;3.53;;
18689;SDS011;9782;52.930;15.562;2023-02-28T13:06:05;4.97;;;3.00;;
18689;SDS011;9782;52.930;15.562;2023-02-28T13:11:38;5.60;;;3.40;;
18689;SDS011;9782;52.930;15.562;2023-02-28T13:14:16;4.93;;;3.63;;
18689;SDS011;9782;52.930;15.562;2023-02-28T13:16:48;4.17;;;2.60;;
18689;SDS011;9782;52.930;15.562;2023-02-28T13:19:24;4.67;;;2.60;;
18689;SDS011;9782;52.930;15.562;2023-02-28T13:21:53;4.87;;;2.10;;
18689;SDS011;9782;52.930;15.562;2023-02-28T13:24:38;3.90;;;2.60;;
18689;SDS011;9782;52.930;15.562;2023-02-28T13:27:11;6.23;;;3.20;;
18689;SDS011;9782;52.930;15.562;2023-02-28T13:29:58;5.77;;;2.90;;
18689;SDS011;9782;52.930;15.562;2023-02-28T13:38:25;9.63;;;5.73;;
18689;SDS011;9782;52.930;15.562;2023-02-28T13:44:05;5.83;;;3.43;;
18689;SDS011;9782;52.930;15.562;2023-02-28T13:46:33;11.97;;;7.33;;
18689;SDS011;9782;52.930;15.562;2023-02-28T13:49:23;5.87;;;3.50;;
18689;SDS011;9782;52.930;15.562;2023-02-28T13:51:54;5.00;;;2.97;;
18689;SDS011;9782;52.930;15.562;2023-02-28T13:54:31;4.90;;;3.20;;
18689;SDS011;9782;52.930;15.562;2023-02-28T13:57:12;7.57;;;3.57;;
18689;SDS011;9782;52.930;15.562;2023-02-28T13:59:50;7.17;;;4.70;;
18689;SDS011;9782;52.930;15.562;2023-02-28T14:05:25;8.03;;;3.90;;
18689;SDS011;9782;52.930;15.562;2023-02-28T14:07:56;7.53;;;3.63;;
18689;SDS011;9782;52.930;15.562;2023-02-28T14:10:26;6.93;;;3.60;;
18689;SDS011;9782;52.930;15.562;2023-02-28T14:13:11;6.93;;;4.10;;
18689;SDS011;9782;52.930;15.562;2023-02-28T14:15:59;7.47;;;3.90;;
18689;SDS011;9782;52.930;15.562;2023-02-28T14:18:28;7.33;;;3.90;;
18689;SDS011;9782;52.930;15.562;2023-02-28T14:20:58;7.43;;;3.83;;
18689;SDS011;9782;52.930;15.562;2023-02-28T14:32:40;9.20;;;4.70;;
18689;SDS011;9782;52.930;15.562;2023-02-28T14:35:16;8.07;;;4.50;;
18689;SDS011;9782;52.930;15.562;2023-02-28T14:37:53;11.20;;;5.83;;
18689;SDS011;9782;52.930;15.562;2023-02-28T14:40:23;14.37;;;5.70;;
18689;SDS011;9782;52.930;15.562;2023-02-28T14:42:55;8.57;;;4.43;;
18689;SDS011;9782;52.930;15.562;2023-02-28T14:45:23;10.00;;;6.67;;
18689;SDS011;9782;52.930;15.562;2023-02-28T14:47:50;7.73;;;4.30;;
18689;SDS011;9782;52.930;15.562;2023-02-28T14:50:18;8.23;;;4.20;;
18689;SDS011;9782;52.930;15.562;2023-02-28T14:52:47;7.13;;;3.93;;
18689;SDS011;9782;52.930;15.562;2023-02-28T14:55:16;8.63;;;5.07;;
18689;SDS011;9782;52.930;15.562;2023-02-28T14:57:51;12.57;;;6.07;;
18689;SDS011;9782;52.930;15.562;2023-02-28T15:00:22;21.23;;;10.00;;
18689;SDS011;9782;52.930;15.562;2023-02-28T15:02:50;20.03;;;9.70;;
18689;SDS011;9782;52.930;15.562;2023-02-28T15:05:21;8.70;;;4.93;;
18689;SDS011;9782;52.930;15.562;2023-02-28T15:08:01;9.23;;;5.03;;
18689;SDS011;9782;52.930;15.562;2023-02-28T15:10:33;56.67;;;18.73;;
18689;SDS011;9782;52.930;15.562;2023-02-28T15:13:02;186.97;;;54.20;;
18689;SDS011;9782;52.930;15.562;2023-02-28T15:15:35;252.40;;;69.23;;
18689;SDS011;9782;52.930;15.562;2023-02-28T15:18:10;39.10;;;14.53;;
18689;SDS011;9782;52.930;15.562;2023-02-28T15:20:49;8.97;;;4.77;;
18689;SDS011;9782;52.930;15.562;2023-02-28T15:23:18;12.73;;;5.97;;
18689;SDS011;9782;52.930;15.562;2023-02-28T15:25:46;28.43;;;12.77;;
18689;SDS011;9782;52.930;15.562;2023-02-28T15:28:16;15.07;;;7.97;;
18689;SDS011;9782;52.930;15.562;2023-02-28T15:30:53;17.03;;;8.47;;
18689;SDS011;9782;52.930;15.562;2023-02-28T15:33:22;20.10;;;9.37;;
18689;SDS011;9782;52.930;15.562;2023-02-28T15:35:50;20.03;;;11.77;;
18689;SDS011;9782;52.930;15.562;2023-02-28T15:38:18;11.60;;;6.77;;
18689;SDS011;9782;52.930;15.562;2023-02-28T15:40:52;11.33;;;5.90;;
18689;SDS011;9782;52.930;15.562;2023-02-28T15:43:25;10.03;;;5.57;;
18689;SDS011;9782;52.930;15.562;2023-02-28T15:45:54;9.20;;;5.20;;
18689;SDS011;9782;52.930;15.562;2023-02-28T15:48:25;8.37;;;4.67;;
18689;SDS011;9782;52.930;15.562;2023-02-28T15:50:54;11.50;;;6.67;;
18689;SDS011;9782;52.930;15.562;2023-02-28T15:53:24;9.40;;;4.63;;
18689;SDS011;9782;52.930;15.562;2023-02-28T15:55:55;7.13;;;4.00;;
18689;SDS011;9782;52.930;15.562;2023-02-28T15:58:26;7.47;;;3.80;;
18689;SDS011;9782;52.930;15.562;2023-02-28T16:01:00;7.80;;;4.03;;
18689;SDS011;9782;52.930;15.562;2023-02-28T16:03:35;7.20;;;4.30;;
18689;SDS011;9782;52.930;15.562;2023-02-28T16:08:59;8.80;;;4.43;;
18689;SDS011;9782;52.930;15.562;2023-02-28T16:11:26;12.43;;;5.97;;
18689;SDS011;9782;52.930;15.562;2023-02-28T16:13:55;12.87;;;6.90;;
18689;SDS011;9782;52.930;15.562;2023-02-28T16:16:23;13.30;;;6.53;;
18689;SDS011;9782;52.930;15.562;2023-02-28T16:18:51;9.67;;;6.17;;
18689;SDS011;9782;52.930;15.562;2023-02-28T16:21:18;9.07;;;5.03;;
18689;SDS011;9782;52.930;15.562;2023-02-28T16:23:45;8.07;;;4.73;;
18689;SDS011;9782;52.930;15.562;2023-02-28T16:26:14;10.10;;;5.47;;
18689;SDS011;9782;52.930;15.562;2023-02-28T16:28:47;12.63;;;5.93;;
18689;SDS011;9782;52.930;15.562;2023-02-28T16:31:15;17.07;;;9.30;;
18689;SDS011;9782;52.930;15.562;2023-02-28T16:33:43;53.33;;;21.70;;
18689;SDS011;9782;52.930;15.562;2023-02-28T16:36:13;45.27;;;19.53;;
18689;SDS011;9782;52.930;15.562;2023-02-28T16:38:40;42.97;;;18.73;;
18689;SDS011;9782;52.930;15.562;2023-02-28T16:41:07;26.90;;;12.47;;
18689;SDS011;9782;52.930;15.562;2023-02-28T16:43:41;15.57;;;8.17;;
18689;SDS011;9782;52.930;15.562;2023-02-28T16:46:10;16.83;;;7.37;;
18689;SDS011;9782;52.930;15.562;2023-02-28T16:48:39;21.07;;;9.67;;
18689;SDS011;9782;52.930;15.562;2023-02-28T16:51:07;15.73;;;8.10;;
18689;SDS011;9782;52.930;15.562;2023-02-28T16:53:37;17.90;;;6.03;;
18689;SDS011;9782;52.930;15.562;2023-02-28T16:56:04;18.43;;;8.37;;
18689;SDS011;9782;52.930;15.562;2023-02-28T16:58:31;19.07;;;10.57;;
18689;SDS011;9782;52.930;15.562;2023-02-28T17:01:00;13.40;;;7.93;;
18689;SDS011;9782;52.930;15.562;2023-02-28T17:03:27;12.77;;;7.73;;
18689;SDS011;9782;52.930;15.562;2023-02-28T17:05:56;9.07;;;4.83;;
18689;SDS011;9782;52.930;15.562;2023-02-28T17:08:23;5.83;;;3.70;;
18689;SDS011;9782;52.930;15.562;2023-02-28T17:10:50;7.40;;;5.30;;
18689;SDS011;9782;52.930;15.562;2023-02-28T17:13:17;8.50;;;4.57;;
18689;SDS011;9782;52.930;15.562;2023-02-28T17:15:44;8.53;;;4.20;;
18689;SDS011;9782;52.930;15.562;2023-02-28T17:18:12;7.07;;;4.10;;
18689;SDS011;9782;52.930;15.562;2023-02-28T17:20:41;5.43;;;3.70;;
18689;SDS011;9782;52.930;15.562;2023-02-28T17:23:09;7.20;;;3.73;;
18689;SDS011;9782;52.930;15.562;2023-02-28T17:25:36;5.77;;;3.40;;
18689;SDS011;9782;52.930;15.562;2023-02-28T17:28:03;6.67;;;3.80;;
18689;SDS011;9782;52.930;15.562;2023-02-28T17:30:31;8.60;;;4.10;;
18689;SDS011;9782;52.930;15.562;2023-02-28T17:33:00;5.57;;;3.13;;
18689;SDS011;9782;52.930;15.562;2023-02-28T17:35:27;7.20;;;4.10;;
18689;SDS011;9782;52.930;15.562;2023-02-28T17:37:54;7.00;;;3.67;;
18689;SDS011;9782;52.930;15.562;2023-02-28T17:40:23;5.57;;;3.67;;
18689;SDS011;9782;52.930;15.562;2023-02-28T17:42:50;8.10;;;3.83;;
18689;SDS011;9782;52.930;15.562;2023-02-28T17:45:17;7.17;;;4.10;;
18689;SDS011;9782;52.930;15.562;2023-02-28T17:47:45;7.67;;;3.67;;
18689;SDS011;9782;52.930;15.562;2023-02-28T17:50:15;7.77;;;4.30;;
18689;SDS011;9782;52.930;15.562;2023-02-28T17:52:44;7.17;;;4.47;;
18689;SDS011;9782;52.930;15.562;2023-02-28T17:55:11;7.27;;;4.17;;
18689;SDS011;9782;52.930;15.562;2023-02-28T17:57:40;6.87;;;4.23;;
18689;SDS011;9782;52.930;15.562;2023-02-28T18:00:09;8.47;;;4.83;;
18689;SDS011;9782;52.930;15.562;2023-02-28T18:02:38;6.27;;;4.30;;
18689;SDS011;9782;52.930;15.562;2023-02-28T18:05:06;7.67;;;4.37;;
18689;SDS011;9782;52.930;15.562;2023-02-28T18:07:33;7.47;;;4.67;;
18689;SDS011;9782;52.930;15.562;2023-02-28T18:10:02;8.43;;;4.60;;
18689;SDS011;9782;52.930;15.562;2023-02-28T18:12:29;9.93;;;4.87;;
18689;SDS011;9782;52.930;15.562;2023-02-28T18:14:57;10.20;;;5.40;;
18689;SDS011;9782;52.930;15.562;2023-02-28T18:17:24;8.93;;;5.00;;
18689;SDS011;9782;52.930;15.562;2023-02-28T18:19:51;8.07;;;4.70;;
18689;SDS011;9782;52.930;15.562;2023-02-28T18:22:18;8.20;;;4.53;;
18689;SDS011;9782;52.930;15.562;2023-02-28T18:24:45;9.07;;;5.60;;
18689;SDS011;9782;52.930;15.562;2023-02-28T18:27:12;14.03;;;9.10;;
18689;SDS011;9782;52.930;15.562;2023-02-28T18:29:39;21.27;;;11.13;;
18689;SDS011;9782;52.930;15.562;2023-02-28T18:32:07;18.67;;;11.23;;
18689;SDS011;9782;52.930;15.562;2023-02-28T18:34:34;13.63;;;8.40;;
18689;SDS011;9782;52.930;15.562;2023-02-28T18:37:01;15.20;;;9.10;;
18689;SDS011;9782;52.930;15.562;2023-02-28T18:39:28;27.63;;;13.93;;
18689;SDS011;9782;52.930;15.562;2023-02-28T18:41:55;38.03;;;20.17;;
18689;SDS011;9782;52.930;15.562;2023-02-28T18:44:22;19.13;;;10.63;;
18689;SDS011;9782;52.930;15.562;2023-02-28T18:46:49;26.33;;;13.40;;
18689;SDS011;9782;52.930;15.562;2023-02-28T18:49:17;19.70;;;10.53;;
18689;SDS011;9782;52.930;15.562;2023-02-28T18:51:44;23.07;;;11.50;;
18689;SDS011;9782;52.930;15.562;2023-02-28T18:54:12;23.67;;;11.30;;
18689;SDS011;9782;52.930;15.562;2023-02-28T18:56:39;20.20;;;11.20;;
18689;SDS011;9782;52.930;15.562;2023-02-28T18:59:06;18.33;;;9.67;;
18689;SDS011;9782;52.930;15.562;2023-02-28T19:01:33;17.90;;;9.93;;
18689;SDS011;9782;52.930;15.562;2023-02-28T19:04:00;13.80;;;8.10;;
